»·PEaware :: SWA1398 KPHX-KPDX

SWA1398 :: KPHX-KPDX

FLIGHT INFORMATION

Flight Status: Arrived
Operator:
Southwest Airlines
More flights by this operator :: More flights under this callsign
Pilot: Andrew M. (139)
Aircraft: BOEING 737-800
(B738)
More flights by this aircraft type
Origin: KPHX Phoenix Sky Harbor Intl
United States
Destination: KPDX Portland Intl
United States
More flights between these airports :: More routes between these airports
Route: QUAKY1 GCN EHK ELY NEERO IMB JOTBA HHOOD4
File this flight plan on PilotEdge
Remarks: PBN / A1B1C1D1S1S2 DOF / 181227 REG / N608BT EET / KZLA0024 KZLC0043 KZSE0154 OPR / SWA PER / C RMK / TCAS SIMBRIEF
Altitude:
(Current/Filed)
34,000ft
Speed:
(Current/Filed)
448kts
Departed: 26-Dec-18 05:50 PM
Arrived: 26-Dec-18 08:21 PM
Distance/Time
Traveled:
877nm/2:31
Distance/Time
To Go:
Arrived

Flight Plot

Page will automatically refresh every two minutes.

Flight plan parsing failed; only flown route is shown


Map Options




Map Legend


Flown Route
Filed Route
Departure Airport
Arrival Airport
Navaid (VOR, NDB)
Fix

Horizontal Profiles

Position Reports

Time Latitude Longitude Heading Altitude Ground
Speed
26-Dec-18 17:04 33.436456 -111.999962 92 1129ft 0kts
26-Dec-18 17:05 33.436456 -111.999962 92 1129ft 0kts
26-Dec-18 17:06 33.436456 -111.999962 92 1129ft 0kts
26-Dec-18 17:07 33.436456 -111.999962 92 1129ft 0kts
26-Dec-18 17:08 33.436456 -111.999962 92 1129ft 0kts
26-Dec-18 17:09 33.436456 -111.999962 92 1129ft 0kts
26-Dec-18 17:10 33.436456 -111.999962 92 1129ft 0kts
26-Dec-18 17:11 33.436456 -111.999962 92 1129ft 0kts
26-Dec-18 17:12 33.436456 -111.999962 92 1129ft 0kts
26-Dec-18 17:13 33.436456 -111.999962 92 1129ft 0kts
26-Dec-18 17:14 33.436456 -111.999962 92 1129ft 0kts
26-Dec-18 17:15 33.436456 -111.999962 92 1129ft 0kts
26-Dec-18 17:16 33.436456 -111.999962 92 1129ft 0kts
26-Dec-18 17:17 33.436456 -111.999962 92 1129ft 0kts
26-Dec-18 17:18 33.436456 -111.999962 92 1129ft 0kts
26-Dec-18 17:19 33.436456 -111.999962 92 1129ft 0kts
26-Dec-18 17:20 33.436456 -111.999962 92 1129ft 0kts
26-Dec-18 17:21 33.436456 -111.999962 92 1129ft 0kts
26-Dec-18 17:22 33.436456 -111.999962 92 1129ft 0kts
26-Dec-18 17:23 33.436456 -111.999962 92 1129ft 0kts
26-Dec-18 17:24 33.436456 -111.999962 92 1129ft 0kts
26-Dec-18 17:25 33.436456 -111.999962 92 1129ft 0kts
26-Dec-18 17:26 33.436456 -111.999962 92 1129ft 0kts
26-Dec-18 17:27 33.436456 -111.999962 92 1129ft 0kts
26-Dec-18 17:28 33.436456 -111.999962 92 1129ft 0kts
26-Dec-18 17:29 33.436456 -111.999962 92 1129ft 0kts
26-Dec-18 17:30 33.436456 -111.999962 92 1129ft 0kts
26-Dec-18 17:31 33.436483 -112.000162 102 1129ft 2kts
26-Dec-18 17:32 33.436552 -112.000742 55 1129ft 1kts
26-Dec-18 17:33 33.436402 -112.000802 359 1129ft 0kts
26-Dec-18 17:34 33.436402 -112.000802 359 1129ft 0kts
26-Dec-18 17:35 33.436402 -112.000802 359 1129ft 0kts
26-Dec-18 17:36 33.436459 -112.000802 359 1129ft 1kts
26-Dec-18 17:37 33.437927 -112.000756 0 1130ft 7kts
26-Dec-18 17:38 33.438907 -112.000926 315 1130ft 6kts
26-Dec-18 17:39 33.439029 -112.004321 270 1129ft 9kts
26-Dec-18 17:40 33.439033 -112.007032 269 1130ft 8kts
26-Dec-18 17:41 33.439020 -112.010801 270 1126ft 11kts
26-Dec-18 17:42 33.439021 -112.013890 269 1125ft 12kts
26-Dec-18 17:43 33.439017 -112.018564 269 1120ft 15kts
26-Dec-18 17:44 33.439018 -112.023223 269 1117ft 14kts
26-Dec-18 17:45 33.439040 -112.027790 270 1114ft 13kts
26-Dec-18 17:46 33.439738 -112.029653 356 1113ft 0kts
26-Dec-18 17:47 33.439754 -112.029654 356 1113ft 0kts
26-Dec-18 17:48 33.440839 -112.029202 83 1113ft 5kts
26-Dec-18 17:49 33.440973 -111.999625 90 1369ft 166kts
26-Dec-18 17:50 33.441872 -111.937515 93 3120ft 217kts
26-Dec-18 17:51 33.438541 -111.861390 94 5408ft 240kts
26-Dec-18 17:52 33.481046 -111.808995 349 7869ft 245kts
26-Dec-18 17:53 33.556004 -111.818122 348 8973ft 289kts
26-Dec-18 17:54 33.634482 -111.833285 348 10335ft 284kts
26-Dec-18 17:55 33.714700 -111.850545 348 12401ft 307kts
26-Dec-18 17:56 33.799159 -111.869621 348 15024ft 312kts
26-Dec-18 17:57 33.884765 -111.888926 348 17563ft 315kts
26-Dec-18 17:59 33.972035 -111.908629 348 19658ft 326kts
26-Dec-18 18:00 34.062614 -111.929122 347 21530ft 337kts
26-Dec-18 18:01 34.157004 -111.943135 352 23304ft 349kts
26-Dec-18 18:02 34.255025 -111.953767 351 24970ft 359kts
26-Dec-18 18:03 34.355483 -111.964849 351 26472ft 368kts
26-Dec-18 18:04 34.458115 -111.976195 351 27879ft 376kts
26-Dec-18 18:05 34.563154 -111.987779 351 29190ft 384kts
26-Dec-18 18:06 34.670466 -111.999667 351 30366ft 392kts
26-Dec-18 18:07 34.780167 -112.011855 351 31540ft 397kts
26-Dec-18 18:08 34.889721 -112.024161 351 32827ft 396kts
26-Dec-18 18:09 34.999415 -112.036535 351 33901ft 397kts
26-Dec-18 18:10 35.111228 -112.049231 351 33968ft 412kts
26-Dec-18 18:11 35.224873 -112.062108 351 33972ft 413kts
26-Dec-18 18:12 35.339319 -112.075116 351 33973ft 413kts
26-Dec-18 18:13 35.453858 -112.086982 352 33976ft 413kts
26-Dec-18 18:14 35.568181 -112.098789 351 33981ft 414kts
26-Dec-18 18:15 35.682627 -112.112541 351 33979ft 414kts
26-Dec-18 18:16 35.797149 -112.126340 351 33978ft 414kts
26-Dec-18 18:16 35.892585 -112.137852 351 33980ft 414kts
26-Dec-18 18:18 36.021765 -112.175581 336 33986ft 411kts
26-Dec-18 18:19 36.126808 -112.227876 337 33993ft 411kts
26-Dec-18 18:19 36.215224 -112.271673 337 33992ft 412kts
26-Dec-18 18:21 36.338917 -112.333068 337 33990ft 412kts
26-Dec-18 18:22 36.445354 -112.386053 337 33989ft 413kts
26-Dec-18 18:22 36.533884 -112.430219 337 33995ft 413kts
26-Dec-18 18:23 36.640673 -112.483628 337 34012ft 413kts
26-Dec-18 18:24 36.747688 -112.537345 337 34013ft 415kts
26-Dec-18 18:25 36.854480 -112.591141 337 34013ft 416kts
26-Dec-18 18:26 36.961909 -112.645417 337 34014ft 417kts
26-Dec-18 18:27 37.069049 -112.699795 336 34016ft 416kts
26-Dec-18 18:28 37.176273 -112.754361 336 34011ft 417kts
26-Dec-18 18:29 37.283548 -112.809106 336 33986ft 417kts
26-Dec-18 18:30 37.390843 -112.864018 336 34006ft 418kts
26-Dec-18 18:31 37.498609 -112.919320 336 34028ft 418kts
26-Dec-18 18:32 37.605799 -112.974425 336 34043ft 419kts
26-Dec-18 18:33 37.713790 -113.030139 336 34073ft 419kts
26-Dec-18 18:34 37.815392 -113.100084 319 34091ft 418kts
26-Dec-18 18:35 37.901424 -113.198581 317 34094ft 418kts
26-Dec-18 18:36 37.987418 -113.297580 317 34096ft 418kts
26-Dec-18 18:37 38.073922 -113.397410 317 34095ft 419kts
26-Dec-18 18:38 38.159277 -113.496228 317 34100ft 420kts
26-Dec-18 18:39 38.245676 -113.596593 317 34099ft 420kts
26-Dec-18 18:40 38.331738 -113.696956 317 34111ft 420kts
26-Dec-18 18:41 38.417704 -113.797609 317 34120ft 419kts
26-Dec-18 18:42 38.503232 -113.898070 317 34119ft 420kts
26-Dec-18 18:43 38.589106 -113.999261 317 34118ft 420kts
26-Dec-18 18:44 38.674670 -114.100420 317 34114ft 418kts
26-Dec-18 18:45 38.759819 -114.201425 317 34109ft 418kts
26-Dec-18 18:46 38.844982 -114.302793 317 34107ft 417kts
26-Dec-18 18:47 38.929855 -114.404155 317 34103ft 417kts
26-Dec-18 18:48 39.014777 -114.505937 317 34097ft 417kts
26-Dec-18 18:49 39.099347 -114.607645 317 34093ft 415kts
26-Dec-18 18:50 39.182808 -114.708438 316 34103ft 416kts
26-Dec-18 18:51 39.266637 -114.810026 316 34103ft 414kts
26-Dec-18 18:52 39.351149 -114.911796 317 34100ft 413kts
26-Dec-18 18:53 39.435755 -115.012844 317 34104ft 412kts
26-Dec-18 18:54 39.519725 -115.113484 317 34116ft 411kts
26-Dec-18 18:55 39.603489 -115.214283 317 34123ft 410kts
26-Dec-18 18:56 39.686742 -115.314873 317 34116ft 408kts
26-Dec-18 18:57 39.769771 -115.415578 317 34114ft 407kts
26-Dec-18 18:58 39.852142 -115.515858 317 34113ft 405kts
26-Dec-18 18:59 39.934317 -115.616285 317 34112ft 405kts
26-Dec-18 19:00 40.016140 -115.716760 316 34116ft 404kts
26-Dec-18 19:01 40.097781 -115.817373 316 34115ft 402kts
26-Dec-18 19:02 40.179050 -115.917842 316 34122ft 403kts
26-Dec-18 19:03 40.260337 -116.018698 316 34124ft 403kts
26-Dec-18 19:04 40.341441 -116.119701 316 34127ft 401kts
26-Dec-18 19:05 40.422190 -116.220651 316 34127ft 401kts
26-Dec-18 19:06 40.503008 -116.322041 316 34126ft 400kts
26-Dec-18 19:07 40.583279 -116.423071 316 34123ft 399kts
26-Dec-18 19:08 40.663445 -116.524329 316 34122ft 399kts
26-Dec-18 19:09 40.743346 -116.625628 315 34116ft 399kts
26-Dec-18 19:10 40.823108 -116.727333 315 34118ft 398kts
26-Dec-18 19:11 40.902156 -116.828437 315 34117ft 397kts
26-Dec-18 19:12 40.981368 -116.930047 315 34101ft 395kts
26-Dec-18 19:13 41.060193 -117.031503 315 34105ft 394kts
26-Dec-18 19:14 41.137447 -117.131281 314 34120ft 394kts
26-Dec-18 19:15 41.215821 -117.232850 314 34119ft 394kts
26-Dec-18 19:16 41.293857 -117.334304 314 34117ft 393kts
26-Dec-18 19:17 41.371798 -117.435996 314 34111ft 392kts
26-Dec-18 19:18 41.449439 -117.537645 314 34105ft 391kts
26-Dec-18 19:19 41.526787 -117.639263 314 34104ft 391kts
26-Dec-18 19:20 41.603722 -117.740871 313 34111ft 389kts
26-Dec-18 19:21 41.680565 -117.842603 313 34110ft 389kts
26-Dec-18 19:22 41.757318 -117.944532 313 34112ft 388kts
26-Dec-18 19:23 41.839987 -118.036382 330 34119ft 395kts
26-Dec-18 19:24 41.940999 -118.094846 332 34114ft 396kts
26-Dec-18 19:25 42.042351 -118.152450 332 34112ft 396kts
26-Dec-18 19:26 42.143500 -118.210131 332 34119ft 396kts
26-Dec-18 19:27 42.244600 -118.268010 332 34118ft 396kts
26-Dec-18 19:28 42.346179 -118.326383 332 34116ft 396kts
26-Dec-18 19:29 42.447583 -118.384881 332 34115ft 396kts
26-Dec-18 19:30 42.549061 -118.443658 332 34113ft 399kts
26-Dec-18 19:31 42.650591 -118.502679 332 34112ft 398kts
26-Dec-18 19:32 42.752510 -118.562159 332 34112ft 399kts
26-Dec-18 19:33 42.854757 -118.622048 332 34109ft 400kts
26-Dec-18 19:34 42.955005 -118.681061 331 34119ft 401kts
26-Dec-18 19:35 43.057320 -118.741605 331 34118ft 402kts
26-Dec-18 19:36 43.159706 -118.802369 331 34123ft 402kts
26-Dec-18 19:37 43.262426 -118.863534 331 34121ft 404kts
26-Dec-18 19:38 43.365198 -118.924942 331 34121ft 404kts
26-Dec-18 19:39 43.468190 -118.986703 331 34120ft 405kts
26-Dec-18 19:40 43.571529 -119.048900 331 34118ft 404kts
26-Dec-18 19:41 43.674439 -119.111066 331 34116ft 405kts
26-Dec-18 19:42 43.777242 -119.173393 332 34111ft 403kts
26-Dec-18 19:43 43.880100 -119.236034 332 34105ft 404kts
26-Dec-18 19:44 43.982749 -119.298780 332 34104ft 403kts
26-Dec-18 19:45 44.086150 -119.362254 332 34102ft 407kts
26-Dec-18 19:46 44.189136 -119.425666 332 34108ft 407kts
26-Dec-18 19:47 44.292656 -119.489660 332 34107ft 406kts
26-Dec-18 19:48 44.395769 -119.553642 332 34105ft 406kts
26-Dec-18 19:49 44.499260 -119.618087 332 34104ft 407kts
26-Dec-18 19:50 44.602219 -119.682502 332 34111ft 407kts
26-Dec-18 19:51 44.690802 -119.776871 311 34110ft 401kts
26-Dec-18 19:52 44.765906 -119.892750 310 34109ft 402kts
26-Dec-18 19:53 44.841124 -120.009407 311 34110ft 403kts
26-Dec-18 19:54 44.915243 -120.124814 311 34113ft 397kts
26-Dec-18 19:55 44.989377 -120.240661 311 34123ft 397kts
26-Dec-18 19:56 45.063721 -120.357298 311 33232ft 403kts
26-Dec-18 19:57 45.137756 -120.473881 311 30085ft 400kts
26-Dec-18 19:58 45.198304 -120.599581 299 27737ft 378kts
26-Dec-18 19:59 45.246939 -120.727122 299 25500ft 360kts
26-Dec-18 20:00 45.293662 -120.849168 298 23375ft 356kts
26-Dec-18 20:01 45.340650 -120.972284 298 21171ft 348kts
26-Dec-18 20:02 45.385353 -121.089856 298 19149ft 329kts
26-Dec-18 20:03 45.427701 -121.202169 294 17070ft 318kts
26-Dec-18 20:04 45.452206 -121.321324 286 15110ft 309kts
26-Dec-18 20:05 45.474756 -121.436501 287 13492ft 293kts
26-Dec-18 20:06 45.496437 -121.546138 287 11899ft 283kts
26-Dec-18 20:07 45.517132 -121.651324 286 10605ft 268kts
26-Dec-18 20:08 45.532139 -121.750964 274 9712ft 250kts
26-Dec-18 20:09 45.534457 -121.848670 274 8678ft 243kts
26-Dec-18 20:10 45.537775 -121.944149 274 7675ft 238kts
26-Dec-18 20:12 45.540824 -122.035665 260 6583ft 229kts
26-Dec-18 20:13 45.513975 -122.116129 254 5878ft 223kts
26-Dec-18 20:14 45.496383 -122.193965 254 5492ft 198kts
26-Dec-18 20:15 45.480116 -122.267555 254 4651ft 189kts
26-Dec-18 20:16 45.493634 -122.336614 297 3760ft 186kts
26-Dec-18 20:17 45.518103 -122.399241 298 2736ft 173kts
26-Dec-18 20:18 45.539431 -122.453671 298 1879ft 148kts
26-Dec-18 20:19 45.559330 -122.504583 299 1068ft 146kts
26-Dec-18 20:20 45.579137 -122.555385 299 284ft 146kts
26-Dec-18 20:21 45.593494 -122.592349 300 24ft 34kts
26-Dec-18 20:22 45.594159 -122.595965 214 27ft 0kts
26-Dec-18 20:23 45.593267 -122.597177 233 27ft 7kts
26-Dec-18 20:24 45.591217 -122.598585 143 24ft 6kts
26-Dec-18 20:25 45.590194 -122.596574 198 24ft 3kts
26-Dec-18 20:26 45.589644 -122.596959 209 24ft 0kts
26-Dec-18 20:27 45.589644 -122.596959 209 24ft 0kts
26-Dec-18 20:28 45.589644 -122.596959 209 24ft 0kts
26-Dec-18 20:29 45.589644 -122.596959 209 24ft 0kts

Navigation Log

Ident Type
Flight plan parsing failed, navigation log unavailable